createdAt,value
2018-09-18T00:04:27.391Z,8.75
2018-09-18T00:10:22.413Z,10.55
2018-09-18T00:16:17.400Z,19.34
2018-09-18T00:22:12.446Z,10.84
2018-09-18T00:28:07.513Z,9.56
2018-09-18T00:34:02.445Z,8.33
2018-09-18T00:39:57.438Z,11.61
2018-09-18T00:45:52.465Z,10.2
2018-09-18T00:51:47.494Z,10.45
2018-09-18T00:57:42.443Z,9.94
2018-09-18T01:03:37.449Z,11.68
2018-09-18T01:09:32.483Z,8.73
2018-09-18T01:15:27.464Z,10.18
2018-09-18T01:21:22.468Z,9.15
2018-09-18T01:27:17.502Z,12.34
2018-09-18T01:33:12.504Z,10.08
2018-09-18T01:39:07.465Z,8.8
2018-09-18T01:45:02.514Z,9.58
2018-09-18T01:50:57.490Z,9.84
2018-09-18T01:56:52.485Z,8.47
2018-09-18T02:02:47.508Z,10.81
2018-09-18T02:08:42.538Z,9.32
2018-09-18T02:14:37.511Z,10.02
2018-09-18T02:20:32.557Z,10.54
2018-09-18T02:26:27.496Z,10.1
2018-09-18T02:32:22.592Z,11.44
2018-09-18T02:38:17.568Z,12.81
2018-09-18T02:44:12.515Z,10.12
2018-09-18T02:50:07.513Z,7.87
2018-09-18T02:56:02.539Z,15.28
2018-09-18T03:01:57.562Z,11.64
2018-09-18T03:07:52.549Z,9.97
2018-09-18T03:13:47.559Z,10.41
2018-09-18T03:19:42.577Z,10.07
2018-09-18T03:25:37.549Z,10.32
2018-09-18T03:31:32.551Z,10.9
2018-09-18T03:37:27.557Z,12.01
2018-09-18T03:43:22.571Z,8.78
2018-09-18T03:49:17.584Z,9.02
2018-09-18T03:55:12.626Z,15.79
2018-09-18T04:01:07.631Z,10.81
2018-09-18T04:07:02.581Z,11.21
2018-09-18T04:12:57.619Z,13.2
2018-09-18T04:18:52.601Z,11.97
2018-09-18T04:24:47.596Z,13.46
2018-09-18T04:30:42.661Z,12.68
2018-09-18T04:36:37.597Z,8.36
2018-09-18T04:42:32.594Z,11.49
2018-09-18T04:48:27.608Z,6.95
2018-09-18T04:54:22.615Z,8.93
2018-09-18T05:00:17.639Z,9.76
2018-09-18T05:06:12.647Z,7.43
2018-09-18T05:12:07.669Z,8.8
2018-09-18T05:18:02.650Z,9.94
2018-09-18T05:23:57.672Z,16.34
2018-09-18T05:29:52.650Z,20.15
2018-09-18T05:35:47.698Z,11.18
2018-09-18T05:41:42.687Z,10.98
2018-09-18T05:47:37.689Z,11.4
2018-09-18T05:53:32.675Z,12.63
2018-09-18T05:59:27.671Z,14.82
2018-09-18T06:05:22.731Z,14.61
2018-09-18T06:11:17.657Z,20.31
2018-09-18T06:17:12.683Z,25.21
2018-09-18T06:23:07.672Z,25.2
2018-09-18T06:29:02.720Z,21.76
2018-09-18T06:34:57.733Z,31.41
2018-09-18T06:40:52.699Z,28.76
2018-09-18T06:46:47.768Z,32.71
2018-09-18T06:52:42.720Z,22.25
2018-09-18T06:58:37.700Z,20.5
2018-09-18T07:04:32.742Z,21.38
2018-09-18T07:10:27.752Z,21.58
2018-09-18T07:16:22.748Z,17.42
2018-09-18T07:22:17.704Z,24.86
2018-09-18T07:28:12.754Z,15.78
2018-09-18T07:34:07.744Z,12.41
2018-09-18T07:40:02.738Z,16.23
2018-09-18T07:45:57.745Z,11.24
2018-09-18T07:51:52.759Z,15.36
2018-09-18T07:57:47.740Z,12.74
2018-09-18T08:03:42.777Z,10.03
2018-09-18T08:09:37.816Z,12.15
2018-09-18T08:15:32.769Z,11.09
2018-09-18T08:21:27.781Z,10.83
2018-09-18T08:27:22.751Z,15.8
2018-09-18T08:33:17.782Z,13.38
2018-09-18T08:39:13.271Z,13.36
2018-09-18T08:45:07.880Z,12.35
2018-09-18T08:51:02.892Z,15.91
2018-09-18T08:56:57.803Z,14.55
2018-09-18T09:02:52.897Z,13
2018-09-18T09:08:47.952Z,16.77
2018-09-18T09:14:42.933Z,16.27
2018-09-18T09:20:37.826Z,29.73
2018-09-18T09:26:32.943Z,8.29
2018-09-18T09:32:27.851Z,9.74
2018-09-18T09:38:22.873Z,10.8
2018-09-18T09:44:17.865Z,7.67
2018-09-18T09:50:12.898Z,11.76
2018-09-18T09:56:07.880Z,5.47
2018-09-18T10:02:02.843Z,5.54
2018-09-18T10:07:57.866Z,5.02
2018-09-18T10:13:52.863Z,4.71
2018-09-18T10:19:47.911Z,7.23
2018-09-18T10:25:42.908Z,6.8
2018-09-18T10:31:37.895Z,13.42
2018-09-18T10:37:32.882Z,4.49
2018-09-18T10:43:27.954Z,5.74
2018-09-18T10:49:22.919Z,4.07
2018-09-18T10:55:17.950Z,4.17
2018-09-18T11:01:12.902Z,3.8
2018-09-18T11:07:08.033Z,6.14
2018-09-18T11:13:02.952Z,7.99
2018-09-18T11:18:57.939Z,5.35
2018-09-18T11:24:53.008Z,4.09
2018-09-18T11:30:47.949Z,4.95
2018-09-18T11:36:42.972Z,5.1
2018-09-18T11:42:37.970Z,4.5
2018-09-18T11:48:32.966Z,7.47
2018-09-18T11:54:27.974Z,4.82
2018-09-18T12:00:22.979Z,4.35
2018-09-18T12:06:17.980Z,5.89
2018-09-18T12:12:12.978Z,7.69
2018-09-18T12:18:07.995Z,7.55
2018-09-18T12:24:03.030Z,5.63
2018-09-18T12:29:58.004Z,4.81
2018-09-18T12:35:53.090Z,3.75
2018-09-18T12:41:48.110Z,7.9
2018-09-18T12:47:43.079Z,5.78
2018-09-18T12:53:38.040Z,5.04
2018-09-18T12:59:33.119Z,4.8
2018-09-18T13:05:28.067Z,4.58
2018-09-18T13:11:23.062Z,4.34
2018-09-18T13:17:18.081Z,7.46
2018-09-18T13:23:13.050Z,11.6
2018-09-18T13:29:08.100Z,6.46
2018-09-18T13:35:03.041Z,8.19
2018-09-18T13:40:58.171Z,7.6
2018-09-18T13:46:53.068Z,4.09
2018-09-18T13:52:48.088Z,6.47
2018-09-18T13:58:43.068Z,7.34
2018-09-18T14:04:38.088Z,4.36
2018-09-18T14:10:33.144Z,4.65
2018-09-18T14:16:28.153Z,10.11
2018-09-18T14:22:23.078Z,5.14
2018-09-18T14:28:18.087Z,5.26
2018-09-18T14:34:13.100Z,9.97
2018-09-18T14:40:08.154Z,8.63
2018-09-18T14:46:03.109Z,4.38
2018-09-18T14:51:58.112Z,11.31
2018-09-18T14:57:53.106Z,9.62
2018-09-18T15:03:48.157Z,9.03
2018-09-18T15:09:43.128Z,13.77
2018-09-18T15:15:38.181Z,11.75
2018-09-18T15:21:33.200Z,11.79
2018-09-18T15:27:28.206Z,5.79
2018-09-18T15:33:23.197Z,9.92
2018-09-18T15:39:18.166Z,13.43
2018-09-18T15:45:13.168Z,9.91
2018-09-18T15:51:08.183Z,8.73
2018-09-18T15:57:03.174Z,11.56
2018-09-18T16:02:58.209Z,6.59
2018-09-18T16:08:53.180Z,9.86
2018-09-18T16:14:48.261Z,11.4
2018-09-18T16:20:43.220Z,15.42
2018-09-18T16:26:38.256Z,5.07
2018-09-18T16:32:33.238Z,4.74
2018-09-18T16:38:28.198Z,6.79
2018-09-18T16:44:23.204Z,7.23
2018-09-18T16:50:18.213Z,7.89
2018-09-18T16:56:13.209Z,3.76
2018-09-18T17:02:08.238Z,3.71
2018-09-18T17:08:03.238Z,4
2018-09-18T17:13:58.263Z,6.65
2018-09-18T17:19:53.245Z,3.44
2018-09-18T17:25:48.249Z,6.21
2018-09-18T17:31:43.259Z,4.56
2018-09-18T17:37:38.295Z,10.9
2018-09-18T17:43:33.264Z,7.5
2018-09-18T17:49:28.265Z,4.34
2018-09-18T17:55:23.334Z,7.45
2018-09-18T18:01:18.282Z,5.4
2018-09-18T18:07:13.288Z,6.13
2018-09-18T18:13:08.298Z,5.53
2018-09-18T18:19:03.309Z,4.99
2018-09-18T18:24:58.301Z,6.09
2018-09-18T18:30:53.304Z,7.78
2018-09-18T18:36:48.317Z,13.98
2018-09-18T18:42:43.367Z,6.82
2018-09-18T18:48:38.384Z,7.03
2018-09-18T18:54:33.371Z,11.07
2018-09-18T19:00:28.478Z,7.05
2018-09-18T19:06:23.363Z,11.09
2018-09-18T19:12:18.409Z,13.68
2018-09-18T19:18:13.347Z,6.47
2018-09-18T19:24:08.350Z,8.34
2018-09-18T19:30:03.502Z,5.2
2018-09-18T19:35:58.357Z,9.93
2018-09-18T19:41:53.377Z,6.51
2018-09-18T19:47:48.368Z,6.27
2018-09-18T19:53:43.386Z,7.74
2018-09-18T19:59:38.384Z,6.57
2018-09-18T20:05:33.404Z,12.63
2018-09-18T20:11:28.381Z,7.52
2018-09-18T20:17:23.404Z,6.26
2018-09-18T20:23:18.389Z,7.87
2018-09-18T20:29:13.442Z,6.37
2018-09-18T20:35:08.437Z,11.99
2018-09-18T20:41:03.461Z,5.95
2018-09-18T20:46:58.416Z,6.7
2018-09-18T20:52:53.460Z,9.55
2018-09-18T20:58:48.462Z,6.67
2018-09-18T21:04:43.424Z,9.93
2018-09-18T21:10:38.453Z,7.93
2018-09-18T21:16:33.479Z,8.06
2018-09-18T21:22:28.426Z,8.7
2018-09-18T21:28:23.465Z,6.96
2018-09-18T21:34:18.454Z,10.69
2018-09-18T21:40:13.488Z,9.47
2018-09-18T21:46:08.443Z,8.27
2018-09-18T21:52:03.469Z,11.98
2018-09-18T21:57:58.471Z,6.85
2018-09-18T22:03:53.489Z,8.59
2018-09-18T22:09:48.481Z,7.01
2018-09-18T22:15:43.536Z,9.19
2018-09-18T22:21:38.535Z,7.95
2018-09-18T22:27:33.502Z,8.01
2018-09-18T22:33:28.495Z,7.42
2018-09-18T22:39:23.482Z,9.6
2018-09-18T22:45:18.496Z,9.87
2018-09-18T22:51:13.501Z,9.35
2018-09-18T22:57:08.522Z,6.95
2018-09-18T23:03:03.551Z,9.62
2018-09-18T23:08:58.517Z,7.45
2018-09-18T23:14:53.535Z,9.19
2018-09-18T23:20:48.529Z,6.84
2018-09-18T23:26:43.589Z,8.22
2018-09-18T23:32:38.548Z,11.23
2018-09-18T23:38:33.527Z,8.03
2018-09-18T23:44:28.546Z,7.19
2018-09-18T23:50:23.574Z,10.27
2018-09-18T23:56:18.555Z,9.78
